SBSPSBKP

Guest
Details From SBSP - Sao Paulo Congonhas
To SBKP - Sao Paulo Viracopos
Flight Number -
Tags generated
Created
Modified
Stats Distance 46 nm / 85 km
Max Altitude 0 ft / 0 m
Waypoints 3
Social Downloads 1
Likes 0
Share VATSIM

Download

Looking for another format? Having issues loading an existing format? Contact us
Advertisement - Login to hide

Notes

Basic altitude profile: - Ascent Rate: 1000ft/min - Ascent Speed: 200kts - Cruise Altitude: 70ft - Cruise Speed: 220kts - Descent Rate: 1500ft/min - Descent Speed: 200kts Options: - Use NATs: yes - Use PACOTS: yes - Use low airways: yes - Use high airways: yes

Route

SBSP CPN SBKP

ID Type Via Altitude Latitude Longitude Leg Dist Tot Dist Heading (true) Name
O SBSP APT - 0 ft / 0 m -23.62669˚ -46.65538˚ - 0 nm - Sao Paulo Congonhas
CPN VOR - 0 ft / 0 m -23.00871˚ -47.12904˚ 45 nm 45 nm 325° / 325° CAMPINAS VOR-DME
O SBKP APT - 0 ft / 0 m -23.00738˚ -47.13452˚ 0 nm 45 nm 285° / 285° Sao Paulo Viracopos

Altitude Profile

Advertisement - Login to hide

SBSP

Details ICAO SBSP (CGH)
Name Sao Paulo Congonhas
Region Brazil
Timezone America/Sao_Paulo (UTC-3.0)
Stats Elevation 2,631 ft / 802 m (AMSL)
Location -23.626693° -46.655377°
Runways 2
Magnetic Variation 21.366° W

METAR

SBSP 161200Z 02004KT 8000 NSC 18/10 Q1025

Decode

TAF

TAF SBSP 160958Z 1612/1712 04005KT CAVOK TX28/1618Z TN14/1709Z BECMG 1614/1616 33005KT BECMG 1620/1622 35004KT BECMG 1701/1703 01002KT BECMG 1705/1707 04002KT BECMG 1709/1711 07002KT RMK PGM

Decode

Departure Runways

ID Width Length Bearing (true) Bearing (mag) Surface Threshold Offset Overrun Length
17L 147 ft / 45 m 4,726 ft / 1,441 m 147.28° 168.65° Asphalt 0 ft / 0 m 220 ft / 67 m
17R 147 ft / 45 m 6,406 ft / 1,953 m 147.39° 168.76° Asphalt 413 ft / 126 m 0 ft / 0 m
35L 147 ft / 45 m 6,406 ft / 1,953 m 327.38° 348.75° Asphalt 200 ft / 61 m 0 ft / 0 m
35R 147 ft / 45 m 4,726 ft / 1,441 m 327.28° 348.65° Asphalt 0 ft / 0 m 0 ft / 0 m

SBKP

Details ICAO SBKP (VCP)
Name Sao Paulo Viracopos
Region Brazil
Timezone America/Sao_Paulo (UTC-3.0)
Stats Elevation 2,170 ft / 661 m (AMSL)
Location -23.007383° -47.134522°
Runways 1
Magnetic Variation 21.267° W

METAR

SBKP 161200Z 12004KT 8000 NSC 18/10 Q1024

Decode

TAF

TAF SBKP 160958Z 1612/1712 10005KT 8000 NSCTX29/1618Z TN13/1709Z BECMG 1612/1614 03006KT BECMG 1615/1617 33003KT CAVOK BECMG 1617/1619 26003KT BECMG 1620/1622 11005KT RMK PGM

Decode

Destination Runways

ID Width Length Bearing (true) Bearing (mag) Surface Threshold Offset Overrun Length
15 148 ft / 45 m 10,639 ft / 3,243 m 127.91° 149.18° Asphalt 0 ft / 0 m 205 ft / 62 m
33 148 ft / 45 m 10,639 ft / 3,243 m 307.90° 329.17° Asphalt 0 ft / 0 m 205 ft / 62 m

Approach Navaids

Runway Type Ident Frequency Range Bearing (true) Bearing (mag) Slope Elevation
15 Localiser IKP 110.30 MHz 18 nm / 33 km 127.95° 149.22° - 2,170 ft / 661 m (AMSL)
15 Glidescope IKP 110.30 MHz 10 nm / 19 km 127.90° 149.17° 3.00° 2,170 ft / 661 m (AMSL)

Popular Alternatives